Time;durP1;ratioP1;P1;durP2;ratioP2;P2;SDS_P1;SDS_P2;PMS_P1;PMS_P2;Temp;Humidity;BMP_temperature;BMP_pressure;BME280_temperature;BME280_humidity;BME280_pressure;Samples;Min_cycle;Max_cycle;Signal;HPM_P1;HPM_P2
2024/04/02 00:01:13;;;;;;;1.63;0.73;;;9.30;95.60;;;;;;5014669;28;20061;-79
2024/04/02 00:03:42;;;;;;;2.10;0.67;;;9.30;95.70;;;;;;5029423;28;20371;-78
2024/04/02 00:06:07;;;;;;;3.17;0.83;;;9.30;95.70;;;;;;5014268;28;20033;-78
2024/04/02 00:08:33;;;;;;;1.63;0.60;;;9.30;95.70;;;;;;5014016;28;20374;-78
2024/04/02 00:11:05;;;;;;;2.00;0.77;;;9.20;95.60;;;;;;5029713;28;20061;-78
2024/04/02 00:13:31;;;;;;;1.20;0.67;;;9.30;95.70;;;;;;5014183;28;20060;-78
2024/04/02 00:15:57;;;;;;;1.53;0.57;;;9.20;95.70;;;;;;5014274;28;20030;-77
2024/04/02 00:18:24;;;;;;;1.27;0.60;;;9.20;95.90;;;;;;5014151;28;20041;-78
2024/04/02 00:20:50;;;;;;;1.97;0.80;;;9.20;95.90;;;;;;5013837;28;20105;-78
2024/04/02 00:23:15;;;;;;;1.33;0.60;;;9.20;96.00;;;;;;5014035;28;20116;-78
2024/04/02 00:25:43;;;;;;;2.30;0.73;;;9.10;96.00;;;;;;5014494;28;20029;-78
2024/04/02 00:28:11;;;;;;;1.47;0.70;;;9.20;96.10;;;;;;5029352;28;20029;-78
2024/04/02 00:30:37;;;;;;;1.90;0.70;;;9.10;96.10;;;;;;5029342;28;20026;-78
2024/04/02 00:33:02;;;;;;;2.17;0.80;;;9.10;96.10;;;;;;5013507;28;20033;-77
2024/04/02 00:35:28;;;;;;;2.73;0.70;;;9.10;96.10;;;;;;5013870;28;20053;-78
2024/04/02 00:37:54;;;;;;;1.57;0.60;;;9.10;96.10;;;;;;5028850;28;20057;-79
2024/04/02 00:40:20;;;;;;;3.57;0.80;;;9.10;96.20;;;;;;5013661;28;20096;-78
2024/04/02 00:42:46;;;;;;;1.70;0.60;;;9.10;96.30;;;;;;5013705;28;20030;-78
2024/04/02 00:45:13;;;;;;;1.27;0.60;;;9.10;96.30;;;;;;5028809;28;20014;-78
2024/04/02 00:47:41;;;;;;;2.20;0.87;;;9.00;96.30;;;;;;5013755;28;20033;-78
2024/04/02 00:50:10;;;;;;;1.67;0.67;;;9.00;96.40;;;;;;5013381;28;20073;-78
2024/04/02 00:52:36;;;;;;;1.80;0.50;;;9.00;96.40;;;;;;5013674;28;20034;-79
2024/04/02 00:55:05;;;;;;;2.97;0.67;;;9.00;96.50;;;;;;5013539;28;20037;-79
2024/04/02 00:57:31;;;;;;;3.53;0.57;;;8.90;96.60;;;;;;5013914;28;20022;-79
2024/04/02 00:59:56;;;;;;;1.90;0.53;;;8.90;96.60;;;;;;5013183;28;20053;-79
2024/04/02 01:02:22;;;;;;;1.50;0.53;;;8.90;96.70;;;;;;5029089;28;20029;-78
2024/04/02 01:04:48;;;;;;;1.83;0.50;;;8.90;96.80;;;;;;5029935;28;20021;-79
2024/04/02 01:07:15;;;;;;;1.77;0.60;;;8.90;96.80;;;;;;5018394;28;20037;-78
2024/04/02 01:09:42;;;;;;;4.43;0.90;;;8.90;96.90;;;;;;5014890;28;20022;-79
2024/04/02 01:12:08;;;;;;;2.10;0.67;;;8.90;97.00;;;;;;5013583;28;20077;-78
2024/04/02 01:14:39;;;;;;;1.60;0.67;;;8.90;97.00;;;;;;5013425;28;20386;-79
2024/04/02 01:17:05;;;;;;;2.63;0.60;;;8.80;97.00;;;;;;5013300;28;20220;-79
2024/04/02 01:19:30;;;;;;;2.60;0.77;;;8.90;97.00;;;;;;5012607;28;20549;-79
2024/04/02 01:21:56;;;;;;;2.87;0.70;;;8.90;97.10;;;;;;5012649;28;20119;-79
2024/04/02 01:24:21;;;;;;;2.57;0.70;;;8.80;97.40;;;;;;5028239;28;20084;-79
2024/04/02 01:26:47;;;;;;;2.73;0.90;;;8.80;97.20;;;;;;5012022;28;20045;-79
2024/04/02 01:29:13;;;;;;;2.13;0.70;;;8.80;97.30;;;;;;5028158;28;20026;-78
2024/04/02 01:31:38;;;;;;;4.10;0.80;;;8.80;97.30;;;;;;5012806;28;20018;-78
2024/04/02 01:34:05;;;;;;;3.40;0.70;;;8.80;97.30;;;;;;5012787;28;20394;-79
2024/04/02 01:36:31;;;;;;;3.50;0.67;;;8.80;97.30;;;;;;5013075;28;20026;-79
2024/04/02 01:38:56;;;;;;;4.03;0.80;;;8.70;97.30;;;;;;5013023;28;20122;-79
2024/04/02 01:41:22;;;;;;;1.53;0.70;;;8.70;97.40;;;;;;5013051;28;20132;-79
2024/04/02 01:43:47;;;;;;;1.47;0.70;;;8.70;97.40;;;;;;5013257;28;20026;-77
2024/04/02 01:46:14;;;;;;;2.80;0.80;;;8.70;97.40;;;;;;5012796;28;20378;-78
2024/04/02 01:48:39;;;;;;;5.50;0.97;;;8.70;97.50;;;;;;5027894;28;20018;-78
2024/04/02 01:51:05;;;;;;;1.67;0.70;;;8.60;97.50;;;;;;5012804;28;20041;-78
2024/04/02 01:53:31;;;;;;;2.33;0.80;;;8.60;97.60;;;;;;5012992;28;20370;-78
2024/04/02 01:55:56;;;;;;;2.50;0.60;;;8.60;97.70;;;;;;5012625;28;20474;-78
2024/04/02 01:58:22;;;;;;;6.43;0.90;;;8.60;97.80;;;;;;5027631;28;20033;-78
2024/04/02 02:00:48;;;;;;;2.10;0.80;;;8.50;97.90;;;;;;5027987;28;20048;-78
2024/04/02 02:03:13;;;;;;;2.20;0.70;;;8.50;97.90;;;;;;5012853;28;20026;-78
2024/04/02 02:05:39;;;;;;;2.30;0.70;;;8.50;98.00;;;;;;5013163;28;20081;-78
2024/04/02 02:08:06;;;;;;;3.40;0.90;;;8.50;98.00;;;;;;5012696;28;20030;-78
2024/04/02 02:10:35;;;;;;;2.43;0.73;;;8.50;98.10;;;;;;5027768;28;20018;-78
2024/04/02 02:13:01;;;;;;;1.87;0.70;;;8.40;98.20;;;;;;5012370;28;20034;-78
2024/04/02 02:15:26;;;;;;;3.47;0.83;;;8.40;98.30;;;;;;5012521;28;20025;-78
2024/04/02 02:17:52;;;;;;;3.63;1.00;;;8.40;98.40;;;;;;5027305;28;20018;-78
2024/04/02 02:20:18;;;;;;;3.17;0.80;;;8.30;98.40;;;;;;5012667;28;20036;-78
2024/04/02 02:22:44;;;;;;;1.70;0.80;;;8.30;98.50;;;;;;5027853;28;20030;-78
2024/04/02 02:25:09;;;;;;;1.40;0.70;;;8.30;98.60;;;;;;5012779;28;20041;-78
2024/04/02 02:27:38;;;;;;;2.43;0.80;;;8.30;98.70;;;;;;5012139;28;20081;-78
2024/04/02 02:30:07;;;;;;;2.70;0.70;;;8.30;98.70;;;;;;5027325;28;20109;-79
2024/04/02 02:32:33;;;;;;;1.67;0.90;;;8.20;98.80;;;;;;5014508;28;20029;-78
2024/04/02 02:34:58;;;;;;;4.37;0.83;;;8.20;98.80;;;;;;5016242;28;20034;-78
2024/04/02 02:37:24;;;;;;;3.57;1.10;;;8.20;98.90;;;;;;5016410;28;20123;-79
2024/04/02 02:39:51;;;;;;;2.00;0.90;;;8.20;99.00;;;;;;5017238;28;20065;-79
2024/04/02 02:42:17;;;;;;;3.03;0.80;;;8.20;99.10;;;;;;5016582;28;20413;-78
2024/04/02 02:44:44;;;;;;;2.23;0.70;;;8.20;99.20;;;;;;5015969;28;20052;-78
2024/04/02 02:47:09;;;;;;;1.70;0.80;;;8.10;99.30;;;;;;5016922;28;20030;-78
2024/04/02 02:49:35;;;;;;;2.70;0.87;;;8.00;99.40;;;;;;5017240;28;20049;-78
2024/04/02 02:52:00;;;;;;;3.83;0.90;;;8.10;99.60;;;;;;5017321;28;20026;-78
2024/04/02 02:54:26;;;;;;;4.03;1.20;;;8.10;99.60;;;;;;5015963;28;20104;-78
2024/04/02 02:56:52;;;;;;;2.70;0.80;;;8.10;99.70;;;;;;5030973;28;20463;-78
2024/04/02 02:59:17;;;;;;;2.63;0.97;;;8.10;99.90;;;;;;5015378;28;20037;-79
2024/04/02 03:01:43;;;;;;;1.67;0.90;;;8.10;99.90;;;;;;5015551;28;20041;-78
2024/04/02 03:04:08;;;;;;;2.17;0.80;;;8.10;99.90;;;;;;5015654;28;20368;-80
2024/04/02 03:06:34;;;;;;;2.60;0.80;;;8.00;99.90;;;;;;5015739;28;20090;-78
2024/04/02 03:09:00;;;;;;;1.50;0.70;;;8.00;99.90;;;;;;5015570;28;20072;-78
2024/04/02 03:11:26;;;;;;;5.87;0.90;;;8.00;99.90;;;;;;5015363;28;20474;-78
2024/04/02 03:13:52;;;;;;;3.03;0.80;;;8.00;99.90;;;;;;5015085;28;20037;-78
2024/04/02 03:16:21;;;;;;;2.50;0.67;;;8.00;99.90;;;;;;5015497;28;20061;-78
2024/04/02 03:18:47;;;;;;;4.47;0.90;;;8.00;99.90;;;;;;5015287;28;20056;-78
2024/04/02 03:21:14;;;;;;;2.67;1.03;;;8.00;99.90;;;;;;5030212;28;20061;-78
2024/04/02 03:23:40;;;;;;;6.03;0.90;;;7.90;99.90;;;;;;5030404;28;20021;-78
2024/04/02 03:26:07;;;;;;;3.97;1.03;;;7.90;99.90;;;;;;5015114;28;20030;-78
2024/04/02 03:28:33;;;;;;;3.47;0.80;;;8.00;99.90;;;;;;5014820;28;20026;-79
2024/04/02 03:31:01;;;;;;;5.63;1.00;;;7.90;99.90;;;;;;5014545;28;20083;-79
2024/04/02 03:33:27;;;;;;;3.40;1.07;;;7.90;99.90;;;;;;5015103;28;20421;-79
2024/04/02 03:35:53;;;;;;;3.70;0.90;;;7.90;99.90;;;;;;5015064;28;20025;-79
2024/04/02 03:38:19;;;;;;;1.80;0.97;;;7.90;99.90;;;;;;5014886;28;20029;-79
2024/04/02 03:40:47;;;;;;;3.10;1.00;;;7.90;99.90;;;;;;5029414;28;20540;-79
2024/04/02 03:43:12;;;;;;;2.77;0.83;;;7.90;99.90;;;;;;5014193;28;20101;-79
2024/04/02 03:45:41;;;;;;;2.97;1.00;;;7.90;99.90;;;;;;5014629;28;20450;-79
2024/04/02 03:48:09;;;;;;;3.13;1.03;;;7.90;99.90;;;;;;5030007;28;20025;-79
2024/04/02 03:50:39;;;;;;;3.83;0.90;;;7.90;99.90;;;;;;5014497;28;20046;-79
2024/04/02 03:53:05;;;;;;;2.57;0.70;;;7.80;99.90;;;;;;5014273;28;20485;-79
2024/04/02 03:55:35;;;;;;;4.87;0.93;;;7.90;99.90;;;;;;5029548;28;20034;-78
2024/04/02 03:58:02;;;;;;;4.10;1.07;;;7.90;99.90;;;;;;5014826;28;20105;-78
2024/04/02 04:00:28;;;;;;;4.30;1.47;;;7.90;99.90;;;;;;5013995;28;20014;-78
2024/04/02 04:02:57;;;;;;;3.27;0.87;;;7.90;99.90;;;;;;5014457;28;20049;-78
2024/04/02 04:05:23;;;;;;;4.67;1.20;;;7.80;99.90;;;;;;5029733;28;20026;-78
2024/04/02 04:07:49;;;;;;;5.97;1.40;;;7.90;99.90;;;;;;5014895;28;20030;-78
2024/04/02 04:10:17;;;;;;;3.23;1.17;;;7.90;99.90;;;;;;5015686;28;20394;-78
2024/04/02 04:12:45;;;;;;;4.07;1.00;;;7.90;99.90;;;;;;5029926;28;20025;-79
2024/04/02 04:15:11;;;;;;;3.57;1.33;;;7.90;99.90;;;;;;5029272;28;20025;-79
2024/04/02 04:17:36;;;;;;;6.27;1.33;;;7.90;99.90;;;;;;5029260;28;20022;-78
2024/04/02 04:20:02;;;;;;;2.83;1.00;;;7.90;99.90;;;;;;5013883;28;20037;-78
2024/04/02 04:22:28;;;;;;;3.20;1.03;;;7.90;99.90;;;;;;5013979;28;20022;-78
2024/04/02 04:25:02;;;;;;;3.73;1.07;;;7.90;99.90;;;;;;5014030;28;20071;-78
2024/04/02 04:27:32;;;;;;;3.88;1.13;;;7.90;99.90;;;;;;5029483;28;20121;-78
2024/04/02 04:30:03;;;;;;;2.60;0.90;;;7.90;99.90;;;;;;5019020;28;20064;-77
2024/04/02 04:32:28;;;;;;;4.93;1.20;;;7.90;99.90;;;;;;5029717;28;20037;-79
2024/04/02 04:34:54;;;;;;;5.03;1.30;;;7.90;99.90;;;;;;5013904;28;20022;-79
2024/04/02 04:37:19;;;;;;;6.37;1.00;;;7.80;99.90;;;;;;5013800;28;20382;-79
2024/04/02 04:39:45;;;;;;;2.97;1.17;;;7.90;99.90;;;;;;5013269;28;20121;-80
2024/04/02 04:42:11;;;;;;;3.80;0.93;;;8.00;99.90;;;;;;5012006;28;20028;-81
2024/04/02 04:44:36;;;;;;;2.83;1.00;;;8.00;99.90;;;;;;5013869;28;20030;-81
2024/04/02 04:47:02;;;;;;;4.60;1.00;;;7.90;99.90;;;;;;5013656;28;20172;-79
2024/04/02 04:49:28;;;;;;;2.93;0.83;;;8.00;99.90;;;;;;5013498;28;20437;-80
2024/04/02 04:51:54;;;;;;;3.17;0.90;;;8.00;99.90;;;;;;5012274;28;20030;-79
2024/04/02 04:54:19;;;;;;;6.63;1.67;;;8.00;99.90;;;;;;5011272;28;20026;-79
2024/04/02 04:56:45;;;;;;;3.17;0.90;;;8.20;99.90;;;;;;5011781;28;20033;-78
2024/04/02 04:59:10;;;;;;;4.23;1.10;;;8.10;99.90;;;;;;5013449;28;20022;-78
2024/04/02 05:01:36;;;;;;;4.40;0.90;;;8.30;99.90;;;;;;5026755;28;20042;-78
2024/04/02 05:04:02;;;;;;;5.43;0.97;;;8.30;99.90;;;;;;5021820;28;20036;-78
2024/04/02 05:06:32;;;;;;;5.77;0.80;;;8.30;99.90;;;;;;5032821;28;20033;-78
2024/04/02 05:08:57;;;;;;;4.10;0.90;;;8.30;99.90;;;;;;5032891;28;20017;-79
2024/04/02 05:11:23;;;;;;;4.67;1.07;;;8.40;99.90;;;;;;5032452;28;20022;-79
2024/04/02 05:13:50;;;;;;;4.90;1.30;;;8.50;99.90;;;;;;5032615;28;20026;-79
2024/04/02 05:16:15;;;;;;;2.57;0.83;;;8.40;99.90;;;;;;5038850;28;20021;-79
2024/04/02 05:18:41;;;;;;;4.67;1.03;;;8.40;99.90;;;;;;5052534;28;20039;-79
2024/04/02 05:21:07;;;;;;;3.63;1.40;;;8.40;99.90;;;;;;5052676;28;20025;-79
2024/04/02 05:23:32;;;;;;;3.23;1.00;;;8.50;99.90;;;;;;5052276;28;20021;-79
2024/04/02 05:26:00;;;;;;;4.63;1.60;;;8.50;99.90;;;;;;5031293;28;20119;-79
2024/04/02 05:28:26;;;;;;;7.10;1.00;;;8.40;99.90;;;;;;5031799;28;20071;-79
2024/04/02 05:30:53;;;;;;;3.10;1.00;;;8.50;99.90;;;;;;5028134;28;20005;-79
2024/04/02 05:33:19;;;;;;;5.50;2.03;;;8.50;99.90;;;;;;5032070;28;20485;-79
2024/04/02 05:35:45;;;;;;;5.07;0.90;;;8.70;99.90;;;;;;5033085;28;20034;-77
2024/04/02 05:38:11;;;;;;;4.40;1.20;;;8.60;99.90;;;;;;5032657;28;20454;-79
2024/04/02 05:40:39;;;;;;;5.53;1.20;;;8.70;99.90;;;;;;5032507;28;20056;-79
2024/04/02 05:43:05;;;;;;;7.47;1.40;;;8.70;99.90;;;;;;5032537;28;20037;-78
2024/04/02 05:45:30;;;;;;;3.80;1.30;;;8.70;99.90;;;;;;5032399;28;20021;-79
2024/04/02 05:47:56;;;;;;;5.20;1.13;;;8.70;99.90;;;;;;5025574;28;20032;-79
2024/04/02 05:50:21;;;;;;;5.70;1.20;;;8.80;99.90;;;;;;5012342;28;20046;-78
2024/04/02 05:52:47;;;;;;;3.70;1.40;;;8.80;99.90;;;;;;5012723;28;20030;-77
2024/04/02 05:55:13;;;;;;;9.30;1.50;;;8.90;99.90;;;;;;5012647;28;20484;-77
2024/04/02 05:57:39;;;;;;;4.70;1.20;;;8.80;99.90;;;;;;5027874;28;20018;-77
2024/04/02 06:00:10;;;;;;;4.53;1.07;;;8.90;99.90;;;;;;5012538;28;20030;-78
2024/04/02 06:02:36;;;;;;;5.53;1.10;;;9.00;99.90;;;;;;5012686;28;20041;-78
2024/04/02 06:05:03;;;;;;;5.93;1.40;;;8.90;99.90;;;;;;5012499;28;20030;-78
2024/04/02 06:07:28;;;;;;;7.20;1.00;;;9.00;99.90;;;;;;5015453;28;20030;-78
2024/04/02 06:09:54;;;;;;;3.87;0.97;;;9.00;99.90;;;;;;5016380;28;20410;-79
2024/04/02 06:12:19;;;;;;;6.93;1.10;;;9.00;99.90;;;;;;5031231;28;20085;-78
2024/04/02 06:14:45;;;;;;;3.27;1.13;;;9.00;99.90;;;;;;5034723;28;20440;-78
2024/04/02 06:17:10;;;;;;;5.43;1.40;;;9.00;99.90;;;;;;5035850;28;20031;-78
2024/04/02 06:19:36;;;;;;;7.73;1.33;;;9.00;99.90;;;;;;5036332;28;20025;-78
2024/04/02 06:22:02;;;;;;;4.17;1.17;;;9.00;99.90;;;;;;5036207;28;20029;-78
2024/04/02 06:24:27;;;;;;;5.70;1.30;;;9.00;99.90;;;;;;5035678;28;20068;-78
2024/04/02 06:26:53;;;;;;;2.70;1.00;;;9.00;99.90;;;;;;5034350;28;20025;-78
2024/04/02 06:29:19;;;;;;;7.73;1.40;;;9.00;99.90;;;;;;5035746;28;20029;-77
2024/04/02 06:31:45;;;;;;;4.07;0.90;;;9.00;99.90;;;;;;5035578;28;20033;-79
2024/04/02 06:34:11;;;;;;;7.50;1.30;;;9.00;99.90;;;;;;5036215;28;20053;-77
2024/04/02 06:36:36;;;;;;;4.80;1.30;;;9.10;99.90;;;;;;5035930;28;20109;-78
2024/04/02 06:39:03;;;;;;;5.50;1.33;;;9.10;99.90;;;;;;5035505;28;20026;-78
2024/04/02 06:41:29;;;;;;;8.00;1.30;;;9.20;99.90;;;;;;5035934;28;20018;-78
2024/04/02 06:43:54;;;;;;;8.97;1.60;;;9.30;99.90;;;;;;5035750;28;20021;-78
2024/04/02 06:46:20;;;;;;;6.70;1.30;;;9.40;99.90;;;;;;5035718;28;20024;-77
2024/04/02 06:48:46;;;;;;;5.00;1.57;;;9.40;99.90;;;;;;5034041;28;20045;-78
2024/04/02 06:51:13;;;;;;;4.90;1.37;;;9.50;99.90;;;;;;5034147;28;20592;-80
2024/04/02 06:53:39;;;;;;;6.07;1.47;;;9.70;99.90;;;;;;5035389;28;20092;-79
2024/04/02 06:56:06;;;;;;;6.07;1.60;;;9.70;99.90;;;;;;5035500;28;20061;-79
2024/04/02 06:58:32;;;;;;;9.83;1.40;;;9.70;99.90;;;;;;5034182;28;20021;-80
2024/04/02 07:00:58;;;;;;;7.77;1.57;;;9.80;99.90;;;;;;5035604;28;20075;-79
2024/04/02 07:03:23;;;;;;;6.47;1.20;;;9.80;99.90;;;;;;5035513;28;20060;-80
2024/04/02 07:05:51;;;;;;;12.13;2.23;;;9.90;99.90;;;;;;5036782;28;20108;-80
2024/04/02 07:08:17;;;;;;;10.67;2.00;;;10.00;99.90;;;;;;5035406;28;20100;-79
2024/04/02 07:10:45;;;;;;;8.43;2.03;;;10.00;99.90;;;;;;5034142;28;20457;-80
2024/04/02 07:13:14;;;;;;;9.20;2.13;;;10.00;99.90;;;;;;5033769;28;20017;-80
2024/04/02 07:15:41;;;;;;;7.63;2.10;;;10.10;99.90;;;;;;5035234;28;20022;-80
2024/04/02 07:18:07;;;;;;;9.50;2.20;;;10.10;99.90;;;;;;5032583;28;20466;-80
2024/04/02 07:20:32;;;;;;;6.00;2.00;;;10.20;99.90;;;;;;5035179;28;20113;-80
2024/04/02 07:22:59;;;;;;;10.37;1.73;;;10.20;99.90;;;;;;5033714;28;20068;-79
2024/04/02 07:25:25;;;;;;;8.67;2.43;;;10.20;99.90;;;;;;5034642;28;20033;-79
2024/04/02 07:27:52;;;;;;;8.30;2.13;;;10.30;99.90;;;;;;5034938;28;20022;-79
2024/04/02 07:30:17;;;;;;;9.38;2.50;;;10.30;99.90;;;;;;5035071;28;20017;-79
2024/04/02 07:32:43;;;;;;;8.70;2.00;;;10.40;99.90;;;;;;5034603;28;20033;-79
2024/04/02 07:35:09;;;;;;;7.97;2.72;;;10.40;99.90;;;;;;5034979;28;20469;-79
2024/04/02 07:37:34;;;;;;;9.90;2.00;;;10.50;99.90;;;;;;5034621;28;20103;-79
2024/04/02 07:40:00;;;;;;;11.70;2.28;;;10.60;99.90;;;;;;5034567;28;20018;-80
2024/04/02 07:42:25;;;;;;;8.73;2.72;;;10.50;99.90;;;;;;5034276;28;20033;-79
2024/04/02 07:44:51;;;;;;;8.07;2.25;;;10.50;99.90;;;;;;5034788;28;20021;-80
2024/04/02 07:47:17;;;;;;;9.52;2.40;;;10.50;99.90;;;;;;5034768;28;20048;-77
2024/04/02 07:49:42;;;;;;;13.43;2.58;;;10.60;99.90;;;;;;5034766;28;20405;-79
2024/04/02 07:52:08;;;;;;;9.45;2.38;;;10.60;99.90;;;;;;5034190;28;20056;-80
2024/04/02 07:54:33;;;;;;;8.57;1.90;;;10.60;99.90;;;;;;5034458;28;20021;-80
2024/04/02 07:56:59;;;;;;;12.38;2.30;;;10.70;99.90;;;;;;5034416;28;20033;-79
2024/04/02 07:59:25;;;;;;;6.80;2.13;;;10.80;99.90;;;;;;5034719;28;20091;-81
2024/04/02 08:01:51;;;;;;;9.05;2.20;;;10.80;99.90;;;;;;5034217;28;20041;-78
2024/04/02 08:04:20;;;;;;;11.45;2.50;;;10.80;99.90;;;;;;5034260;28;20079;-78
2024/04/02 08:06:46;;;;;;;10.90;2.17;;;10.80;99.90;;;;;;5033805;28;20049;-79
2024/04/02 08:09:12;;;;;;;11.70;2.38;;;10.80;99.90;;;;;;5034235;28;20096;-78
2024/04/02 08:11:38;;;;;;;12.35;2.53;;;10.80;99.90;;;;;;5034183;28;20029;-78
2024/04/02 08:14:06;;;;;;;10.43;2.42;;;10.80;99.90;;;;;;5034014;28;20033;-78
2024/04/02 08:16:32;;;;;;;10.95;2.05;;;10.80;99.90;;;;;;5034120;28;20021;-78
2024/04/02 08:18:58;;;;;;;8.50;2.00;;;10.80;99.90;;;;;;5033698;28;20140;-78
2024/04/02 08:21:23;;;;;;;7.90;1.80;;;10.80;99.90;;;;;;5033681;28;20120;-78
2024/04/02 08:23:49;;;;;;;9.73;1.90;;;10.80;99.90;;;;;;5033851;28;20049;-77
2024/04/02 08:26:14;;;;;;;6.18;1.40;;;10.70;99.90;;;;;;5033708;28;20030;-77
2024/04/02 08:28:40;;;;;;;8.20;1.15;;;10.80;99.90;;;;;;5032531;28;20116;-78
2024/04/02 08:31:06;;;;;;;7.38;1.95;;;10.80;99.90;;;;;;5033348;28;20106;-78
2024/04/02 08:33:31;;;;;;;7.97;1.60;;;10.80;99.90;;;;;;5034564;28;20473;-78
2024/04/02 08:35:57;;;;;;;8.70;1.40;;;10.80;99.90;;;;;;5034167;28;20025;-78
2024/04/02 08:38:23;;;;;;;9.20;1.73;;;10.80;99.90;;;;;;5032382;28;20021;-78
2024/04/02 08:40:52;;;;;;;6.10;1.42;;;10.90;99.90;;;;;;5031996;28;20064;-78
2024/04/02 08:43:20;;;;;;;10.27;2.13;;;10.90;99.90;;;;;;5033890;28;20470;-79
2024/04/02 08:45:46;;;;;;;11.98;1.40;;;11.00;99.90;;;;;;5033702;28;20009;-78
2024/04/02 08:48:13;;;;;;;8.10;2.38;;;11.00;99.90;;;;;;5033483;28;20013;-79
2024/04/02 08:50:39;;;;;;;9.55;1.63;;;11.10;99.90;;;;;;5033204;28;20497;-78
2024/04/02 08:53:05;;;;;;;13.48;1.90;;;11.10;99.90;;;;;;5032988;28;20167;-79
2024/04/02 08:55:32;;;;;;;11.77;1.67;;;11.00;99.90;;;;;;5033342;28;20025;-80
2024/04/02 08:57:59;;;;;;;9.25;1.38;;;11.10;99.90;;;;;;5033157;28;20033;-78
2024/04/02 09:00:26;;;;;;;12.93;2.45;;;11.10;99.90;;;;;;5032867;28;20370;-80
2024/04/02 09:02:54;;;;;;;11.48;1.73;;;11.20;99.90;;;;;;5033300;28;20022;-79
2024/04/02 09:05:20;;;;;;;11.70;1.38;;;11.30;99.90;;;;;;5032975;28;20026;-78
2024/04/02 09:07:46;;;;;;;10.80;1.40;;;11.30;99.90;;;;;;5032937;28;20029;-78
2024/04/02 09:10:12;;;;;;;8.70;1.30;;;11.30;99.90;;;;;;5032992;28;20021;-79
2024/04/02 09:12:42;;;;;;;8.20;1.42;;;11.30;99.90;;;;;;5032990;28;20033;-78
2024/04/02 09:15:07;;;;;;;6.55;1.17;;;11.30;99.90;;;;;;5032909;28;20033;-79
2024/04/02 09:17:34;;;;;;;10.88;1.50;;;11.40;99.80;;;;;;5031255;28;20021;-79
2024/04/02 09:20:00;;;;;;;9.25;1.70;;;11.50;99.80;;;;;;5032710;28;20096;-79
2024/04/02 09:22:25;;;;;;;5.10;1.10;;;11.50;99.30;;;;;;5032675;28;20029;-78
2024/04/02 09:24:51;;;;;;;10.70;1.30;;;11.60;99.40;;;;;;5032764;28;20029;-79
2024/04/02 09:27:18;;;;;;;7.85;1.42;;;11.70;99.50;;;;;;5032906;28;20462;-78
2024/04/02 09:29:44;;;;;;;10.70;1.50;;;11.70;99.40;;;;;;5032843;28;20025;-79
2024/04/02 09:32:10;;;;;;;7.80;1.38;;;11.80;99.20;;;;;;5032198;28;20037;-79
2024/04/02 09:34:38;;;;;;;10.98;1.27;;;11.90;99.10;;;;;;5031686;28;20022;-80
2024/04/02 09:37:30;;;;;;;12.70;2.08;;;11.80;98.30;;;;;;5032636;28;20029;-80
2024/04/02 09:39:58;;;;;;;9.25;1.75;;;11.90;98.10;;;;;;5032637;28;20018;-79
2024/04/02 09:42:24;;;;;;;13.38;1.67;;;11.90;98.00;;;;;;5037241;28;20461;-79
2024/04/02 09:44:52;;;;;;;12.27;1.25;;;11.80;97.90;;;;;;5039373;28;20037;-78
2024/04/02 09:47:18;;;;;;;9.02;1.40;;;11.90;98.20;;;;;;5039042;28;20025;-78
2024/04/02 09:49:44;;;;;;;6.07;1.05;;;12.10;98.30;;;;;;5038993;28;20508;-79
2024/04/02 09:52:10;;;;;;;5.15;1.20;;;12.30;98.40;;;;;;5039024;28;20499;-79
2024/04/02 09:54:36;;;;;;;9.68;1.52;;;12.50;98.20;;;;;;5037585;28;20029;-79
2024/04/02 09:57:04;;;;;;;9.50;1.05;;;12.80;97.80;;;;;;5039249;28;20026;-79
2024/04/02 09:59:30;;;;;;;7.00;1.20;;;12.90;97.70;;;;;;5039712;28;20131;-78
2024/04/02 10:01:57;;;;;;;10.05;1.05;;;13.10;97.20;;;;;;5039206;28;20112;-79
2024/04/02 10:04:24;;;;;;;6.38;1.40;;;13.20;96.50;;;;;;5039262;28;20029;-79
2024/04/02 10:06:53;;;;;;;8.05;1.33;;;13.30;96.00;;;;;;5039125;28;20026;-79
2024/04/02 10:09:18;;;;;;;5.93;1.38;;;13.40;95.50;;;;;;5037839;28;20083;-79
2024/04/02 10:11:47;;;;;;;6.68;1.48;;;13.60;95.60;;;;;;5039092;28;20478;-79
2024/04/02 10:14:14;;;;;;;7.78;1.40;;;13.80;94.70;;;;;;5038955;28;20045;-78
2024/04/02 10:16:50;;;;;;;7.05;0.90;;;14.10;94.50;;;;;;5039045;28;20029;-79
2024/04/02 10:19:22;;;;;;;8.23;1.15;;;14.20;92.80;;;;;;5037453;28;20461;-79
2024/04/02 10:21:49;;;;;;;4.80;0.80;;;14.10;91.70;;;;;;5039024;28;20029;-79
2024/04/02 10:24:15;;;;;;;6.18;0.70;;;14.00;92.40;;;;;;5039033;28;20053;-79
2024/04/02 10:26:42;;;;;;;9.07;1.08;;;13.90;91.60;;;;;;5038130;28;20029;-79
2024/04/02 10:29:08;;;;;;;10.30;1.02;;;13.80;91.10;;;;;;5038913;28;20030;-79
2024/04/02 10:31:41;;;;;;;8.00;0.90;;;13.70;90.20;;;;;;5038296;28;20424;-79
2024/04/02 10:34:11;;;;;;;6.50;0.90;;;13.50;90.50;;;;;;5038682;28;20036;-79
2024/04/02 10:36:39;;;;;;;7.72;1.17;;;13.40;91.10;;;;;;5037539;28;20018;-79
2024/04/02 10:39:09;;;;;;;4.70;0.73;;;13.30;91.70;;;;;;5039070;28;20026;-79
2024/04/02 10:41:39;;;;;;;5.32;0.82;;;13.20;92.20;;;;;;5038604;28;20025;-79
2024/04/02 10:44:06;;;;;;;8.02;1.27;;;13.10;92.50;;;;;;5037518;28;20032;-81
2024/04/02 10:46:32;;;;;;;9.90;1.35;;;13.00;93.00;;;;;;5038652;28;20022;-80
2024/04/02 10:49:07;;;;;;;7.80;1.88;;;12.90;93.20;;;;;;5038629;28;20032;-80
2024/04/02 10:51:33;;;;;;;6.75;0.90;;;13.00;93.60;;;;;;5037606;28;20100;-80
2024/04/02 10:53:59;;;;;;;5.72;0.80;;;13.00;93.90;;;;;;5034630;28;20112;-82
2024/04/02 10:56:26;;;;;;;8.50;0.82;;;12.90;94.20;;;;;;5035367;28;20121;-81
2024/04/02 10:58:55;;;;;;;10.82;1.25;;;12.90;94.80;;;;;;5035454;28;20417;-81
2024/04/02 11:01:21;;;;;;;5.63;0.80;;;12.90;95.40;;;;;;5035293;28;20056;-81
2024/04/02 11:03:54;;;;;;;7.78;0.90;;;12.80;95.70;;;;;;5035386;28;20018;-81
2024/04/02 11:06:20;;;;;;;4.13;0.90;;;12.70;95.90;;;;;;5035338;28;20021;-81
2024/04/02 11:08:49;;;;;;;3.80;0.95;;;12.60;96.20;;;;;;5034006;28;20022;-81
2024/04/02 11:11:22;;;;;;;4.85;0.80;;;12.60;96.50;;;;;;5035283;28;20478;-80
2024/04/02 11:13:49;;;;;;;5.85;0.85;;;12.60;96.60;;;;;;5035093;28;20025;-80
2024/04/02 11:16:18;;;;;;;2.85;0.63;;;12.60;96.80;;;;;;5035308;28;20075;-82
2024/04/02 11:18:44;;;;;;;6.93;0.90;;;12.70;96.90;;;;;;5034909;28;20059;-82
2024/04/02 11:21:17;;;;;;;8.48;1.23;;;12.60;97.10;;;;;;5034998;28;20083;-80
2024/04/02 11:26:27;;;;;;;5.45;0.80;;;12.60;97.40;;;;;;5034964;28;20040;-80
2024/04/02 11:29:07;;;;;;;6.55;1.00;;;12.60;97.80;;;;;;5034739;28;20022;-82
2024/04/02 11:31:33;;;;;;;5.75;1.77;;;12.60;98.10;;;;;;5034834;28;20029;-79
2024/04/02 11:34:02;;;;;;;5.78;0.75;;;12.60;98.10;;;;;;5034627;28;20021;-82
2024/04/02 11:36:28;;;;;;;3.28;0.80;;;12.50;98.30;;;;;;5035071;28;20022;-81
2024/04/02 11:38:54;;;;;;;7.63;0.80;;;12.40;98.40;;;;;;5033512;28;20022;-81
2024/04/02 11:41:20;;;;;;;5.13;0.90;;;12.40;98.60;;;;;;5033305;28;20032;-81
2024/04/02 11:43:46;;;;;;;4.78;0.90;;;12.40;99.10;;;;;;5034569;28;20378;-80
2024/04/02 11:46:11;;;;;;;5.57;0.98;;;12.30;99.10;;;;;;5034667;28;20014;-82
2024/04/02 11:48:37;;;;;;;5.78;0.90;;;12.20;99.40;;;;;;5032994;28;20424;-81
2024/04/02 11:51:04;;;;;;;4.57;0.90;;;12.10;99.50;;;;;;5034529;28;20049;-81
2024/04/02 11:53:29;;;;;;;5.22;0.80;;;12.10;99.50;;;;;;5033265;28;20481;-81
2024/04/02 11:55:55;;;;;;;6.10;1.10;;;12.00;99.90;;;;;;5034524;28;20104;-81
2024/04/02 12:01:06;;;;;;;;;;;11.70;99.90;;;;;;5035018;28;20531;-82
2024/04/02 12:03:31;;;;;;;5.00;0.82;;;11.70;99.90;;;;;;5034114;28;19941;-82
2024/04/02 12:05:57;;;;;;;7.15;0.80;;;11.60;99.90;;;;;;5034085;28;20053;-81
2024/04/02 12:08:24;;;;;;;4.88;1.00;;;11.70;99.90;;;;;;5032678;28;20029;-79
2024/04/02 12:10:50;;;;;;;3.15;0.60;;;11.90;99.90;;;;;;5033160;28;20026;-81
2024/04/02 12:13:16;;;;;;;5.68;1.23;;;12.10;99.90;;;;;;5033890;28;20038;-80
2024/04/02 12:15:41;;;;;;;6.25;0.80;;;12.20;99.90;;;;;;5032692;28;20021;-80
2024/04/02 12:18:07;;;;;;;5.03;1.00;;;12.30;99.90;;;;;;5034142;28;20022;-82
2024/04/02 12:20:32;;;;;;;5.15;0.95;;;12.40;99.90;;;;;;5032830;28;20079;-80
2024/04/02 12:22:58;;;;;;;3.42;0.65;;;12.40;99.90;;;;;;5033806;28;20033;-80
2024/04/02 12:25:24;;;;;;;5.25;0.80;;;12.50;99.90;;;;;;5032675;28;20104;-79
2024/04/02 12:27:54;;;;;;;4.53;0.98;;;12.60;99.90;;;;;;5032002;28;20022;-81
2024/04/02 12:30:20;;;;;;;5.82;0.75;;;13.00;99.90;;;;;;5033836;28;20029;-81
2024/04/02 12:32:48;;;;;;;3.33;0.63;;;13.30;99.90;;;;;;5033350;28;20037;-81
2024/04/02 12:35:15;;;;;;;5.05;0.80;;;13.50;99.90;;;;;;5033687;28;20104;-81
2024/04/02 12:37:41;;;;;;;5.30;1.00;;;13.60;99.80;;;;;;5033713;28;20044;-81
2024/04/02 12:40:07;;;;;;;6.18;1.10;;;13.50;98.90;;;;;;5033510;28;20152;-82
2024/04/02 12:42:33;;;;;;;4.90;1.00;;;13.30;98.70;;;;;;5032988;28;20052;-80
2024/04/02 12:44:59;;;;;;;5.88;1.10;;;13.20;99.10;;;;;;5033565;28;20033;-80
2024/04/02 12:47:24;;;;;;;6.53;1.00;;;13.20;99.40;;;;;;5033558;28;20045;-81
2024/04/02 12:49:50;;;;;;;5.65;0.90;;;13.30;99.40;;;;;;5033524;28;20084;-81
2024/04/02 12:52:16;;;;;;;5.93;1.17;;;13.20;99.20;;;;;;5033392;28;20393;-81
2024/04/02 12:54:42;;;;;;;4.07;0.88;;;13.10;99.20;;;;;;5033058;28;20037;-81